Time;durP1;ratioP1;P1;durP2;ratioP2;P2;SDS_P1;SDS_P2;PMS_P1;PMS_P2;Temp;Humidity;BMP_temperature;BMP_pressure;BME280_temperature;BME280_humidity;BME280_pressure;Samples;Min_cycle;Max_cycle;Signal;HPM_P1;HPM_P2
2022/11/13 00:01:20;;;;;;;101.03;76.05;;;21.40;53.50;;;;;;4962446;55;21057;-44
2022/11/13 00:06:21;;;;;;;97.78;75.20;;;21.40;53.50;;;;;;4890645;55;21018;-48
2022/11/13 00:11:22;;;;;;;101.03;75.90;;;21.40;53.40;;;;;;4744361;59;21565;-38
2022/11/13 00:16:22;;;;;;;99.13;75.25;;;21.40;53.50;;;;;;4773858;55;21022;-40
2022/11/13 00:21:26;;;;;;;98.87;75.55;;;21.40;53.50;;;;;;4871394;55;21046;-43
2022/11/13 00:26:29;;;;;;;95.20;72.37;;;21.40;53.40;;;;;;4745066;59;21499;-38
2022/11/13 00:31:30;;;;;;;93.53;71.25;;;21.40;53.40;;;;;;4745180;59;21113;-48
2022/11/13 00:36:31;;;;;;;96.90;74.47;;;21.40;53.40;;;;;;4744565;59;21014;-38
2022/11/13 00:41:31;;;;;;;97.05;71.03;;;21.40;53.40;;;;;;4772353;55;21034;-44
2022/11/13 00:46:32;;;;;;;98.28;73.10;;;21.40;53.30;;;;;;4758118;55;21010;-47
2022/11/13 00:51:33;;;;;;;96.37;73.12;;;21.40;53.30;;;;;;4745103;59;21058;-46
2022/11/13 00:56:34;;;;;;;97.32;74.22;;;21.40;53.30;;;;;;4830175;55;21081;-43
2022/11/13 01:01:35;;;;;;;95.95;70.22;;;21.40;53.30;;;;;;4744923;59;21524;-45
2022/11/13 01:06:35;;;;;;;94.40;70.10;;;21.40;53.30;;;;;;4930931;55;21129;-41
2022/11/13 01:11:36;;;;;;;95.00;72.62;;;21.40;53.30;;;;;;5156631;55;21049;-39
2022/11/13 01:16:37;;;;;;;92.00;71.90;;;21.40;53.30;;;;;;4871850;55;21073;-40
2022/11/13 01:21:38;;;;;;;91.45;70.82;;;21.40;53.20;;;;;;4879201;55;21073;-50
2022/11/13 01:26:39;;;;;;;89.37;68.50;;;21.40;53.20;;;;;;4791114;55;20998;-41
2022/11/13 01:31:39;;;;;;;87.57;68.82;;;21.40;53.80;;;;;;4762864;55;21492;-41
2022/11/13 01:36:40;;;;;;;91.50;70.18;;;21.40;53.20;;;;;;5139387;55;21029;-42
2022/11/13 01:41:41;;;;;;;92.62;69.18;;;21.40;53.10;;;;;;5003161;55;21018;-41
2022/11/13 01:46:54;;;;;;;93.18;69.80;;;21.40;53.10;;;;;;4745169;59;21017;-42
2022/11/13 01:52:01;;;;;;;89.13;67.30;;;21.40;53.00;;;;;;4803025;55;21543;-43
2022/11/13 01:57:03;;;;;;;;;;;21.40;53.20;;;;;;4818669;55;21057;-34
2022/11/13 02:02:04;;;;;;;86.47;66.25;;;21.40;53.20;;;;;;4745364;59;20072;-48
2022/11/13 02:07:14;;;;;;;88.75;66.68;;;21.40;53.10;;;;;;4745500;59;21050;-42
2022/11/13 02:12:21;;;;;;;83.28;63.50;;;21.40;53.00;;;;;;4745260;56;21082;-33
2022/11/13 02:17:33;;;;;;;84.97;63.78;;;21.40;52.90;;;;;;4886295;55;20993;-44
2022/11/13 02:23:04;;;;;;;79.60;60.78;;;21.40;53.00;;;;;;4847486;55;21037;-42
2022/11/13 02:28:05;;;;;;;83.90;63.87;;;21.40;53.10;;;;;;5016721;55;20966;-43
2022/11/13 02:34:58;;;;;;;82.97;62.15;;;21.40;53.00;;;;;;4745431;59;21231;-38
2022/11/13 02:39:58;;;;;;;80.65;60.15;;;21.40;52.80;;;;;;4744961;59;20998;-34
2022/11/13 02:45:00;;;;;;;80.43;61.72;;;21.40;52.90;;;;;;4910396;55;21488;-42
2022/11/13 02:50:00;;;;;;;83.43;61.20;;;21.40;52.90;;;;;;4813000;55;21479;-41
2022/11/13 02:55:02;;;;;;;82.70;62.35;;;21.30;52.90;;;;;;4906702;55;21006;-40
2022/11/13 03:00:05;;;;;;;78.25;58.35;;;21.30;52.70;;;;;;4827699;55;21010;-41
2022/11/13 03:05:06;;;;;;;74.00;58.08;;;21.40;52.70;;;;;;4835868;55;20970;-47
2022/11/13 03:10:08;;;;;;;74.62;54.50;;;21.30;52.90;;;;;;4838542;55;21018;-37
2022/11/13 03:15:10;;;;;;;74.45;58.20;;;21.30;52.80;;;;;;4973912;55;21038;-40
2022/11/13 03:20:10;;;;;;;72.40;54.17;;;21.40;52.80;;;;;;4991929;55;21531;-41
2022/11/13 03:25:11;;;;;;;71.10;54.13;;;21.30;52.70;;;;;;4751708;55;21116;-42
2022/11/13 03:30:12;;;;;;;73.68;55.65;;;21.30;52.60;;;;;;4788735;55;21121;-40
2022/11/13 03:35:13;;;;;;;67.85;52.28;;;21.40;52.70;;;;;;5009749;55;21496;-43
2022/11/13 03:40:14;;;;;;;70.97;55.05;;;21.30;52.60;;;;;;4804511;55;21002;-42
2022/11/13 03:45:15;;;;;;;72.35;54.70;;;21.30;52.60;;;;;;4872757;55;21002;-48
2022/11/13 03:50:16;;;;;;;72.45;54.97;;;21.40;52.80;;;;;;4745452;59;21050;-42
2022/11/13 03:55:16;;;;;;;65.32;50.72;;;21.40;52.70;;;;;;5230555;55;21010;-45
2022/11/13 04:00:17;;;;;;;66.60;52.58;;;21.40;52.60;;;;;;4776089;55;21066;-44
2022/11/13 04:05:18;;;;;;;65.22;51.80;;;21.30;52.60;;;;;;4906018;55;21054;-46
2022/11/13 04:10:19;;;;;;;68.12;52.47;;;21.30;52.50;;;;;;4744484;59;21026;-41
2022/11/13 04:15:20;;;;;;;64.55;51.37;;;21.30;52.90;;;;;;4744940;59;20997;-43
2022/11/13 04:20:21;;;;;;;63.92;49.90;;;21.30;52.50;;;;;;4784154;55;21077;-44
2022/11/13 04:25:22;;;;;;;64.25;50.45;;;21.30;52.40;;;;;;4745350;59;21495;-43
2022/11/13 04:30:23;;;;;;;61.37;48.20;;;21.30;52.30;;;;;;4780426;55;21002;-47
2022/11/13 04:35:24;;;;;;;65.43;49.47;;;21.30;52.40;;;;;;4820269;55;21082;-45
2022/11/13 04:40:25;;;;;;;62.72;47.13;;;21.30;52.30;;;;;;4772935;55;21544;-43
2022/11/13 04:45:26;;;;;;;63.47;48.75;;;21.30;52.30;;;;;;4758438;55;20982;-40
2022/11/13 04:50:27;;;;;;;57.05;45.33;;;21.30;52.30;;;;;;4773177;55;21448;-41
2022/11/13 04:55:28;;;;;;;58.47;47.22;;;21.50;52.50;;;;;;4869740;55;21065;-44
2022/11/13 05:00:28;;;;;;;60.38;45.85;;;21.30;52.30;;;;;;4874179;55;21018;-41
2022/11/13 05:05:29;;;;;;;54.95;44.40;;;21.30;52.20;;;;;;4859830;55;21074;-44
2022/11/13 05:10:30;;;;;;;58.85;45.80;;;21.30;52.50;;;;;;5213076;55;21085;-46
2022/11/13 05:15:31;;;;;;;53.72;43.30;;;21.30;52.30;;;;;;4744701;59;21029;-43
2022/11/13 05:20:32;;;;;;;57.33;44.50;;;21.30;52.20;;;;;;4765116;55;21037;-48
2022/11/13 05:25:32;;;;;;;53.08;41.72;;;21.30;52.20;;;;;;5033065;55;21543;-50
2022/11/13 05:30:33;;;;;;;53.05;42.50;;;21.30;52.10;;;;;;4853691;55;21006;-35
2022/11/13 05:35:34;;;;;;;53.55;42.88;;;21.30;52.20;;;;;;4765291;55;21022;-44
2022/11/13 05:40:35;;;;;;;52.92;41.97;;;21.30;52.00;;;;;;4951396;55;21074;-41
2022/11/13 05:45:36;;;;;;;53.87;42.00;;;21.30;52.10;;;;;;4784927;55;21021;-36
2022/11/13 05:50:36;;;;;;;52.13;42.17;;;21.30;52.10;;;;;;4745192;55;21082;-47
2022/11/13 05:55:37;;;;;;;52.70;40.67;;;21.30;52.00;;;;;;4841593;55;21023;-36
2022/11/13 06:00:38;;;;;;;49.10;39.03;;;21.30;52.00;;;;;;4861901;55;21601;-41
2022/11/13 06:05:39;;;;;;;51.40;40.80;;;21.30;52.00;;;;;;4745902;59;21046;-40
2022/11/13 06:10:40;;;;;;;48.75;39.60;;;21.30;52.00;;;;;;4746134;55;21057;-39
2022/11/13 06:15:40;;;;;;;47.70;38.67;;;21.30;52.60;;;;;;4745358;59;21066;-43
2022/11/13 06:20:41;;;;;;;51.65;39.85;;;21.30;51.80;;;;;;4954972;55;20998;-31
2022/11/13 06:25:42;;;;;;;51.15;39.30;;;21.30;52.40;;;;;;4746252;56;20998;-32
2022/11/13 06:30:43;;;;;;;44.92;36.65;;;21.20;51.70;;;;;;4745937;59;20996;-48
2022/11/13 06:35:44;;;;;;;46.83;37.50;;;21.30;51.60;;;;;;4845569;55;21033;-46
2022/11/13 06:40:44;;;;;;;50.50;38.55;;;21.20;52.10;;;;;;4803843;55;21014;-44
2022/11/13 06:45:45;;;;;;;45.22;36.63;;;21.30;51.50;;;;;;4843704;55;20993;-42
2022/11/13 06:50:46;;;;;;;47.80;36.28;;;21.30;51.50;;;;;;4745706;59;21073;-44
2022/11/13 06:55:49;;;;;;;49.40;38.65;;;21.30;51.40;;;;;;5005998;55;21523;-43
2022/11/13 07:00:50;;;;;;;46.28;37.05;;;21.30;51.40;;;;;;4957911;55;21113;-42
2022/11/13 07:05:51;;;;;;;46.30;36.58;;;21.30;51.40;;;;;;4875368;55;21109;-41
2022/11/13 07:10:54;;;;;;;48.13;36.67;;;21.30;51.30;;;;;;4871697;55;21085;-36
2022/11/13 07:16:00;;;;;;;48.97;37.70;;;21.20;51.20;;;;;;4984889;55;21085;-49
2022/11/13 07:21:06;;;;;;;48.30;37.55;;;21.40;51.30;;;;;;4808931;55;21010;-41
2022/11/13 07:26:08;;;;;;;46.85;37.13;;;21.30;51.20;;;;;;5206705;55;21141;-43
2022/11/13 07:31:11;;;;;;;46.05;37.08;;;21.30;51.10;;;;;;4806368;55;21018;-32
2022/11/13 07:36:12;;;;;;;46.37;36.92;;;21.30;51.20;;;;;;4796140;55;21085;-41
2022/11/13 07:41:12;;;;;;;45.47;36.88;;;21.30;51.20;;;;;;4782978;55;21628;-44
2022/11/13 07:46:13;;;;;;;47.45;36.65;;;21.30;51.10;;;;;;4749841;55;21005;-37
2022/11/13 07:51:14;;;;;;;45.70;36.83;;;21.30;51.10;;;;;;4771823;55;21065;-38
2022/11/13 07:56:15;;;;;;;48.03;37.75;;;21.30;51.00;;;;;;4789943;55;21031;-50
2022/11/13 08:01:16;;;;;;;48.45;38.78;;;21.30;51.00;;;;;;5085621;55;21061;-43
2022/11/13 08:06:16;;;;;;;48.40;38.45;;;21.30;51.00;;;;;;4785859;55;21013;-46
2022/11/13 08:11:17;;;;;;;49.13;39.22;;;21.30;51.10;;;;;;4744353;59;21085;-37
2022/11/13 08:16:18;;;;;;;47.72;38.40;;;21.30;50.80;;;;;;4907655;55;21090;-46
2022/11/13 08:21:20;;;;;;;52.90;40.50;;;21.30;50.90;;;;;;4941681;55;21050;-41
2022/11/13 08:26:21;;;;;;;50.10;39.97;;;21.20;51.50;;;;;;4857082;55;21511;-43
2022/11/13 08:31:22;;;;;;;51.30;41.13;;;21.30;50.90;;;;;;4839508;55;21504;-47
2022/11/13 08:36:23;;;;;;;52.78;41.55;;;21.30;51.10;;;;;;5110652;55;21073;-47
2022/11/13 08:41:23;;;;;;;51.92;41.75;;;21.30;50.90;;;;;;4876080;55;21070;-42
2022/11/13 08:46:24;;;;;;;56.95;44.20;;;21.30;50.90;;;;;;4786772;55;21042;-48
2022/11/13 08:51:25;;;;;;;53.25;42.70;;;21.30;50.90;;;;;;4818111;55;21126;-41
2022/11/13 08:56:26;;;;;;;55.58;43.72;;;21.30;50.80;;;;;;5106079;55;21093;-39
2022/11/13 09:01:26;;;;;;;54.63;43.30;;;21.30;50.90;;;;;;4874591;55;21101;-46
2022/11/13 09:06:27;;;;;;;57.85;45.28;;;21.30;50.90;;;;;;4765941;55;21006;-46
2022/11/13 09:11:28;;;;;;;59.15;46.97;;;21.40;50.90;;;;;;4941238;55;21098;-39
2022/11/13 09:16:30;;;;;;;59.17;46.83;;;21.30;51.00;;;;;;4744071;59;21022;-39
2022/11/13 09:21:31;;;;;;;61.65;47.78;;;21.50;51.00;;;;;;4745248;59;21042;-40
2022/11/13 09:26:34;;;;;;;59.25;47.22;;;21.30;50.90;;;;;;4887908;55;21013;-42
2022/11/13 09:31:37;;;;;;;60.78;47.83;;;21.30;50.90;;;;;;4762079;55;21562;-46
2022/11/13 09:36:38;;;;;;;64.95;50.95;;;21.30;50.80;;;;;;4797373;55;21591;-31
2022/11/13 09:41:42;;;;;;;64.10;50.65;;;21.30;51.00;;;;;;4807631;55;20994;-47
2022/11/13 09:47:10;;;;;;;68.35;51.90;;;21.30;50.90;;;;;;4888256;55;21010;-44
2022/11/13 09:52:22;;;;;;;70.37;54.13;;;21.30;50.90;;;;;;4745324;59;20998;-41
2022/11/13 09:59:27;;;;;;;68.37;53.35;;;21.30;50.90;;;;;;4901600;55;21077;-37
2022/11/13 10:06:27;;;;;;;70.03;54.03;;;21.30;50.80;;;;;;4745129;59;20993;-46
2022/11/13 10:11:58;;;;;;;75.30;56.60;;;21.30;50.80;;;;;;4744201;55;21509;-45
2022/11/13 10:17:18;;;;;;;70.85;54.83;;;21.30;50.90;;;;;;4902981;55;21073;-43
2022/11/13 10:22:39;;;;;;;74.32;57.55;;;21.30;50.80;;;;;;4762628;55;21002;-45
2022/11/13 10:27:40;;;;;;;74.20;57.03;;;21.30;50.90;;;;;;4783402;55;21081;-43
2022/11/13 10:32:42;;;;;;;73.07;56.85;;;21.30;51.10;;;;;;4955749;55;21491;-37
2022/11/13 10:38:49;;;;;;;79.35;59.47;;;21.40;51.20;;;;;;4992730;55;21050;-41
2022/11/13 10:43:59;;;;;;;;;;;21.30;51.00;;;;;;4748143;59;21520;-44
2022/11/13 10:50:56;;;;;;;76.93;59.53;;;21.40;51.10;;;;;;4745181;59;20163;-41
2022/11/13 10:55:58;;;;;;;81.18;58.87;;;21.40;51.50;;;;;;4744728;59;21094;-41
2022/11/13 11:00:59;;;;;;;77.22;59.17;;;21.40;51.30;;;;;;4910358;55;21057;-44
2022/11/13 11:06:03;;;;;;;80.20;60.65;;;21.40;51.30;;;;;;4745148;59;21129;-43
2022/11/13 11:16:37;;;;;;;84.40;64.35;;;21.40;51.20;;;;;;4828330;55;21516;-42
2022/11/13 11:21:41;;;;;;;83.35;63.40;;;21.40;51.40;;;;;;4745177;59;21049;-42
2022/11/13 11:26:55;;;;;;;80.40;62.65;;;21.40;51.40;;;;;;5038207;55;21072;-45
2022/11/13 11:39:05;;;;;;;85.72;65.47;;;21.40;51.40;;;;;;5019356;55;20986;-49
2022/11/13 11:44:32;;;;;;;86.63;66.12;;;21.40;51.30;;;;;;4892099;55;21018;-37
2022/11/13 11:49:33;;;;;;;84.20;65.17;;;21.40;51.60;;;;;;4789517;55;21019;-43
2022/11/13 11:54:42;;;;;;;90.10;66.78;;;21.40;51.60;;;;;;4745169;55;21396;-45
2022/11/13 12:00:18;;;;;;;92.35;67.32;;;21.40;51.80;;;;;;4745442;59;21449;-46
2022/11/13 12:05:28;;;;;;;85.37;66.37;;;21.40;51.70;;;;;;4762842;55;21479;-38
2022/11/13 12:18:11;;;;;;;89.55;67.37;;;21.40;51.80;;;;;;4744344;59;21094;-38
2022/11/13 12:24:29;;;;;;;88.97;67.32;;;21.40;51.80;;;;;;4749665;55;21057;-46
2022/11/13 12:31:39;;;;;;;92.70;70.37;;;21.40;51.90;;;;;;4744931;59;21022;-39
2022/11/13 12:36:40;;;;;;;93.78;71.65;;;21.40;51.90;;;;;;5003752;55;21588;-35
2022/11/13 12:41:55;;;;;;;92.37;70.50;;;21.30;52.00;;;;;;4881393;55;20994;-39
2022/11/13 12:47:00;;;;;;;91.65;71.10;;;21.30;52.00;;;;;;4745493;59;21001;-43
2022/11/13 12:52:17;;;;;;;90.60;69.50;;;21.40;52.00;;;;;;4803477;55;21070;-43
2022/11/13 12:57:22;;;;;;;91.80;68.80;;;21.30;52.00;;;;;;4824858;55;21030;-45
2022/11/13 13:02:40;;;;;;;91.47;69.45;;;21.30;52.00;;;;;;4745592;59;21508;-41
2022/11/13 13:08:08;;;;;;;89.37;70.50;;;21.30;52.00;;;;;;4837102;55;21046;-43
2022/11/13 13:13:32;;;;;;;92.30;71.18;;;21.40;52.20;;;;;;4905874;55;21046;-42
2022/11/13 13:18:38;;;;;;;94.43;71.80;;;21.40;52.10;;;;;;4821206;55;21042;-36
2022/11/13 13:23:42;;;;;;;92.68;70.03;;;21.40;52.20;;;;;;4765798;55;21021;-42
2022/11/13 13:28:50;;;;;;;91.45;70.60;;;21.30;52.10;;;;;;4745446;59;21049;-46
2022/11/13 13:37:38;;;;;;;87.47;69.82;;;21.40;52.20;;;;;;4824314;55;21557;-37
2022/11/13 13:43:09;;;;;;;91.20;70.35;;;21.40;52.10;;;;;;4745134;59;21050;-48
2022/11/13 13:48:12;;;;;;;88.90;67.90;;;21.30;51.60;;;;;;5200624;55;21073;-43
2022/11/13 13:53:28;;;;;;;93.30;70.45;;;21.30;51.70;;;;;;4877044;55;21077;-44
2022/11/13 13:58:35;;;;;;;88.57;68.25;;;21.30;51.80;;;;;;4745418;59;21067;-41
2022/11/13 14:03:36;;;;;;;93.37;69.75;;;21.30;51.70;;;;;;4848929;55;21124;-36
2022/11/13 14:08:37;;;;;;;87.20;66.95;;;21.30;51.70;;;;;;4744566;55;21033;-43
2022/11/13 14:13:37;;;;;;;85.87;65.85;;;21.30;51.70;;;;;;4796969;55;20998;-48
2022/11/13 14:18:38;;;;;;;89.70;68.82;;;21.30;51.80;;;;;;4861204;55;21135;-47
2022/11/13 14:23:45;;;;;;;89.22;66.50;;;21.30;51.70;;;;;;4744746;59;21073;-52
2022/11/13 14:28:56;;;;;;;90.03;66.40;;;21.30;51.80;;;;;;5230994;55;21129;-41
2022/11/13 14:34:02;;;;;;;92.07;68.28;;;21.30;51.80;;;;;;4980282;55;21033;-46
2022/11/13 14:39:03;;;;;;;89.78;67.05;;;21.30;51.80;;;;;;4745743;55;21014;-40
2022/11/13 14:44:04;;;;;;;87.03;66.90;;;21.30;51.80;;;;;;4998588;55;21006;-38
2022/11/13 14:49:29;;;;;;;89.90;66.68;;;21.30;51.80;;;;;;4745632;59;21010;-45
2022/11/13 14:54:33;;;;;;;84.65;64.07;;;21.30;51.80;;;;;;4745751;55;20986;-38
2022/11/13 14:59:34;;;;;;;88.18;67.43;;;21.30;51.80;;;;;;4772078;55;21062;-45
2022/11/13 15:04:34;;;;;;;84.53;65.80;;;21.30;51.80;;;;;;4822588;55;21496;-46
2022/11/13 15:09:35;;;;;;;84.70;64.75;;;21.30;51.90;;;;;;5216069;55;21081;-41
2022/11/13 15:14:38;;;;;;;82.10;62.70;;;21.30;51.90;;;;;;4946716;55;21026;-43
2022/11/13 15:19:39;;;;;;;82.30;66.30;;;21.30;51.90;;;;;;4745735;59;21010;-46
2022/11/13 15:24:40;;;;;;;88.25;66.30;;;21.30;51.90;;;;;;4896086;55;21623;-43
2022/11/13 15:29:42;;;;;;;84.05;64.05;;;21.30;51.90;;;;;;5002473;55;21014;-43
2022/11/13 15:34:43;;;;;;;89.50;64.30;;;21.30;51.90;;;;;;5231027;55;21500;-36
2022/11/13 15:39:44;;;;;;;84.45;63.83;;;21.30;51.90;;;;;;4745207;59;21030;-41
2022/11/13 15:44:45;;;;;;;82.37;64.18;;;21.30;51.90;;;;;;4745489;59;21502;-42
2022/11/13 15:49:46;;;;;;;81.75;63.30;;;21.30;52.00;;;;;;4745398;59;21472;-42
2022/11/13 15:54:47;;;;;;;83.22;63.65;;;21.30;52.10;;;;;;5231101;55;21121;-40
2022/11/13 15:59:48;;;;;;;84.07;62.53;;;21.30;52.00;;;;;;4785290;55;21006;-38
2022/11/13 16:04:52;;;;;;;82.28;63.67;;;21.30;52.00;;;;;;4854596;55;21107;-44
2022/11/13 16:09:53;;;;;;;84.60;64.50;;;21.30;52.00;;;;;;4905809;55;21496;-42
2022/11/13 16:14:53;;;;;;;82.82;63.08;;;21.30;52.10;;;;;;4885228;55;21085;-44
2022/11/13 16:19:55;;;;;;;80.30;63.78;;;21.30;52.10;;;;;;4835462;55;20990;-42
2022/11/13 16:24:55;;;;;;;86.70;63.45;;;21.30;52.10;;;;;;4745393;59;21629;-51
2022/11/13 16:29:56;;;;;;;78.50;63.00;;;21.30;52.50;;;;;;5203297;55;20978;-42
2022/11/13 16:34:57;;;;;;;82.50;63.53;;;21.30;52.20;;;;;;4744944;59;21040;-37
2022/11/13 16:39:58;;;;;;;83.07;62.33;;;21.30;52.10;;;;;;4781811;55;21021;-45
2022/11/13 16:44:58;;;;;;;85.15;64.70;;;21.30;52.10;;;;;;4940975;55;21064;-45
2022/11/13 16:50:00;;;;;;;80.90;62.47;;;21.30;52.10;;;;;;4883783;55;21580;-46
2022/11/13 16:55:00;;;;;;;84.53;63.00;;;21.30;52.10;;;;;;4747692;55;21566;-37
2022/11/13 17:00:02;;;;;;;77.03;59.97;;;21.30;52.10;;;;;;4775171;55;21053;-44
2022/11/13 17:05:04;;;;;;;82.47;62.47;;;21.30;52.00;;;;;;4785976;55;21061;-43
2022/11/13 17:10:06;;;;;;;78.95;61.78;;;21.30;52.10;;;;;;4780327;55;21026;-41
2022/11/13 17:15:07;;;;;;;82.60;62.28;;;21.30;52.00;;;;;;4996111;55;21046;-44
2022/11/13 17:20:10;;;;;;;79.75;61.80;;;21.30;52.00;;;;;;4796930;55;21050;-43
2022/11/13 17:25:11;;;;;;;79.45;60.28;;;21.30;52.00;;;;;;4854081;55;20974;-31
2022/11/13 17:30:13;;;;;;;86.15;62.88;;;21.30;52.00;;;;;;4831339;55;20998;-42
2022/11/13 17:35:13;;;;;;;83.55;63.72;;;21.30;52.00;;;;;;4744497;59;21093;-43
2022/11/13 17:40:15;;;;;;;79.07;61.65;;;21.30;52.00;;;;;;5191698;55;21548;-41
2022/11/13 17:45:16;;;;;;;82.20;62.83;;;21.30;52.10;;;;;;5140189;55;21508;-39
2022/11/13 17:50:17;;;;;;;82.72;62.10;;;21.30;52.00;;;;;;4939383;55;21025;-46
2022/11/13 17:55:18;;;;;;;79.85;62.80;;;21.30;52.10;;;;;;4862331;55;21066;-41
2022/11/13 18:00:19;;;;;;;79.07;60.33;;;21.30;52.00;;;;;;4799653;55;21571;-44
2022/11/13 18:05:20;;;;;;;79.70;60.80;;;21.30;52.00;;;;;;4870611;55;21566;-44
2022/11/13 18:10:20;;;;;;;81.57;63.00;;;21.30;52.10;;;;;;4823142;55;21109;-42
2022/11/13 18:15:21;;;;;;;84.93;64.07;;;21.30;52.00;;;;;;4985027;55;21001;-39
2022/11/13 18:20:22;;;;;;;79.90;63.42;;;21.30;52.00;;;;;;4773489;55;21073;-40
2022/11/13 18:25:25;;;;;;;79.62;61.25;;;21.30;52.10;;;;;;4771294;55;21006;-46
2022/11/13 18:30:26;;;;;;;81.10;63.28;;;21.30;52.00;;;;;;4861099;55;20998;-42
2022/11/13 18:35:27;;;;;;;82.75;63.38;;;21.30;52.00;;;;;;4960621;55;21009;-47
2022/11/13 18:40:27;;;;;;;77.30;61.10;;;21.30;52.10;;;;;;5008311;55;21109;-45
2022/11/13 18:45:28;;;;;;;81.15;62.60;;;21.30;52.10;;;;;;4799019;55;21061;-43
2022/11/13 18:50:29;;;;;;;82.65;64.28;;;21.30;52.00;;;;;;5005414;55;21014;-40
2022/11/13 18:55:30;;;;;;;81.80;64.57;;;21.20;51.90;;;;;;5173322;55;21116;-44
2022/11/13 19:00:31;;;;;;;80.45;63.63;;;21.30;52.00;;;;;;4756149;55;21078;-45
2022/11/13 19:05:31;;;;;;;81.43;63.25;;;21.20;51.90;;;;;;4745394;57;21058;-42
2022/11/13 19:10:33;;;;;;;84.30;64.55;;;21.30;52.00;;;;;;4744122;59;21584;-39
2022/11/13 19:15:36;;;;;;;85.90;64.90;;;21.30;52.00;;;;;;4768216;55;21551;-43
2022/11/13 19:20:38;;;;;;;85.47;64.82;;;21.30;52.00;;;;;;4766474;55;21499;-43
2022/11/13 19:25:39;;;;;;;82.25;64.90;;;21.30;51.90;;;;;;4990484;55;21057;-37
2022/11/13 19:30:44;;;;;;;82.75;65.10;;;21.30;51.90;;;;;;4745253;59;21093;-42
2022/11/13 19:35:45;;;;;;;86.53;66.93;;;21.20;51.80;;;;;;4802164;55;21599;-48
2022/11/13 19:40:50;;;;;;;89.45;67.62;;;21.30;52.00;;;;;;4843439;55;21017;-45
2022/11/13 19:45:50;;;;;;;84.30;65.97;;;21.30;51.90;;;;;;4745120;59;21058;-43
2022/11/13 19:50:51;;;;;;;87.12;66.60;;;21.20;51.80;;;;;;5095767;55;21058;-38
2022/11/13 19:55:54;;;;;;;89.28;66.80;;;21.30;51.90;;;;;;4872546;55;21026;-41
2022/11/13 20:00:55;;;;;;;86.40;66.15;;;21.30;51.80;;;;;;4851394;55;21476;-31
2022/11/13 20:05:59;;;;;;;81.87;64.43;;;21.20;51.80;;;;;;4776482;55;21058;-30
2022/11/13 20:11:05;;;;;;;87.97;67.40;;;21.20;51.80;;;;;;4945597;55;21611;-46
2022/11/13 20:16:08;;;;;;;89.43;68.03;;;21.20;51.80;;;;;;4799751;55;21120;-39
2022/11/13 20:21:09;;;;;;;85.43;64.90;;;21.30;51.90;;;;;;4745575;59;21065;-46
2022/11/13 20:26:15;;;;;;;86.70;65.53;;;21.20;51.70;;;;;;4887537;55;21079;-42
2022/11/13 20:31:21;;;;;;;93.90;70.20;;;21.30;51.80;;;;;;4889635;55;21097;-46
2022/11/13 20:36:23;;;;;;;88.18;66.35;;;21.30;51.80;;;;;;4983467;55;21069;-36
2022/11/13 20:41:24;;;;;;;87.47;67.80;;;21.30;51.80;;;;;;4816876;55;21069;-47
2022/11/13 20:46:25;;;;;;;93.12;71.12;;;21.20;51.80;;;;;;4745462;55;20986;-45
2022/11/13 20:51:27;;;;;;;86.43;67.00;;;21.30;51.80;;;;;;4745244;59;21009;-38
2022/11/13 20:56:28;;;;;;;89.45;68.40;;;21.20;51.70;;;;;;4812080;55;21006;-36
2022/11/13 21:01:33;;;;;;;92.78;68.72;;;21.20;51.70;;;;;;4844565;55;21475;-37
2022/11/13 21:06:33;;;;;;;90.20;68.55;;;21.30;51.80;;;;;;4785601;55;21504;-37
2022/11/13 21:11:37;;;;;;;85.00;67.00;;;21.20;52.30;;;;;;4915136;55;20978;-28
2022/11/13 21:16:38;;;;;;;91.07;69.25;;;21.20;51.70;;;;;;4744660;59;21094;-40
2022/11/13 21:21:42;;;;;;;94.57;72.50;;;21.20;51.70;;;;;;4860481;55;21005;-46
2022/11/13 21:26:42;;;;;;;93.93;72.50;;;21.20;51.60;;;;;;4744983;59;21008;-44
2022/11/13 21:31:43;;;;;;;89.15;68.45;;;21.20;51.60;;;;;;4998512;55;21547;-38
2022/11/13 21:36:44;;;;;;;92.85;70.28;;;21.20;51.70;;;;;;4744467;59;20978;-36
2022/11/13 21:41:45;;;;;;;91.50;70.62;;;21.30;51.70;;;;;;4745433;59;21000;-31
2022/11/13 21:46:46;;;;;;;94.95;71.87;;;21.20;51.60;;;;;;4841902;55;21049;-35
2022/11/13 21:51:46;;;;;;;93.72;70.72;;;21.20;51.60;;;;;;4751587;55;20994;-33
2022/11/13 21:56:47;;;;;;;93.22;71.45;;;21.20;52.30;;;;;;4922060;55;21145;-46
2022/11/13 22:01:48;;;;;;;95.38;72.10;;;21.30;51.70;;;;;;5230736;55;21076;-37
2022/11/13 22:06:50;;;;;;;93.95;71.90;;;21.20;51.60;;;;;;4778600;55;21086;-40
2022/11/13 22:11:50;;;;;;;92.05;69.82;;;21.20;51.50;;;;;;4808845;55;21090;-45
2022/11/13 22:16:52;;;;;;;93.10;72.22;;;21.20;51.50;;;;;;4744586;59;21500;-35
2022/11/13 22:21:53;;;;;;;94.55;73.37;;;21.20;51.50;;;;;;4744674;59;21074;-43
2022/11/13 22:26:53;;;;;;;100.40;74.18;;;21.20;51.50;;;;;;4773587;55;21476;-36
2022/11/13 22:31:54;;;;;;;98.03;74.20;;;21.20;51.60;;;;;;4770559;55;21077;-45
2022/11/13 22:36:55;;;;;;;101.25;75.82;;;21.20;51.60;;;;;;4744440;59;21022;-42
2022/11/13 22:41:56;;;;;;;101.93;76.22;;;21.20;51.50;;;;;;4984497;55;20997;-41
2022/11/13 22:46:57;;;;;;;101.15;77.22;;;21.20;51.50;;;;;;4981299;55;21512;-47
2022/11/13 22:51:58;;;;;;;103.18;77.80;;;21.20;51.40;;;;;;4797181;55;21105;-32
2022/11/13 22:57:02;;;;;;;102.22;77.75;;;21.30;51.60;;;;;;4790505;55;21013;-35
2022/11/13 23:02:03;;;;;;;98.57;75.22;;;21.20;51.50;;;;;;4853346;55;21468;-39
2022/11/13 23:07:04;;;;;;;104.07;79.53;;;21.20;51.60;;;;;;4745726;59;21046;-43
2022/11/13 23:12:05;;;;;;;103.35;78.97;;;21.20;51.50;;;;;;4819734;55;21006;-45
2022/11/13 23:17:05;;;;;;;106.03;79.30;;;21.20;51.50;;;;;;4764381;55;21017;-38
2022/11/13 23:22:06;;;;;;;97.53;74.93;;;21.20;51.50;;;;;;4799538;55;21500;-40
2022/11/13 23:27:07;;;;;;;101.45;76.70;;;21.20;51.50;;;;;;4813629;55;21049;-33
2022/11/13 23:32:08;;;;;;;103.87;78.40;;;21.20;52.10;;;;;;4765587;55;21487;-37
2022/11/13 23:37:09;;;;;;;102.95;77.20;;;21.20;51.60;;;;;;4744327;59;21021;-48
2022/11/13 23:42:10;;;;;;;105.65;79.12;;;21.20;51.50;;;;;;5035686;55;21025;-50
2022/11/13 23:47:11;;;;;;;105.30;79.87;;;21.20;51.50;;;;;;4899067;55;21025;-34
2022/11/13 23:52:11;;;;;;;108.40;80.85;;;21.20;51.40;;;;;;4767132;55;21078;-44
2022/11/13 23:57:12;;;;;;;105.87;79.78;;;21.20;51.40;;;;;;4807256;55;20989;-40
